createdAt,value
2018-12-27T00:01:48.835Z,21.70
2018-12-27T00:04:31.926Z,21.57
2018-12-27T00:07:22.398Z,20.30
2018-12-27T00:10:04.240Z,19.20
2018-12-27T00:16:17.366Z,19.10
2018-12-27T00:19:00.386Z,20.00
2018-12-27T00:21:43.112Z,18.57
2018-12-27T00:27:53.861Z,19.40
2018-12-27T00:30:37.082Z,19.83
2018-12-27T00:33:27.738Z,19.93
2018-12-27T00:36:09.624Z,19.07
2018-12-27T00:39:00.299Z,19.47
2018-12-27T00:41:44.951Z,19.60
2018-12-27T00:47:37.191Z,18.27
2018-12-27T00:50:18.923Z,18.83
2018-12-27T00:53:09.570Z,19.10
2018-12-27T00:55:52.557Z,18.83
2018-12-27T00:58:36.841Z,20.17
2018-12-27T01:01:18.583Z,18.60
2018-12-27T01:04:09.349Z,18.73
2018-12-27T01:06:52.941Z,16.20
2018-12-27T01:09:43.596Z,18.80
2018-12-27T01:12:27.269Z,19.60
2018-12-27T01:18:44.498Z,17.10
2018-12-27T01:21:28.068Z,18.10
2018-12-27T01:24:10.976Z,18.40
2018-12-27T01:33:24.436Z,20.93
2018-12-27T01:36:13.383Z,18.70
2018-12-27T01:42:31.338Z,18.30
2018-12-27T01:45:14.985Z,18.83
2018-12-27T01:47:58.443Z,18.00
2018-12-27T01:50:49.142Z,18.20
2018-12-27T01:53:32.540Z,17.30
2018-12-27T01:59:43.177Z,16.97
2018-12-27T02:02:26.625Z,19.90
2018-12-27T02:05:10.063Z,18.10
2018-12-27T02:08:00.700Z,17.03
2018-12-27T02:10:42.326Z,16.90
2018-12-27T02:13:32.953Z,19.37
2018-12-27T02:16:16.578Z,17.70
2018-12-27T02:19:07.309Z,17.20
2018-12-27T02:21:49.071Z,17.80
2018-12-27T02:24:39.789Z,16.57
2018-12-27T02:27:23.159Z,17.20
2018-12-27T02:33:40.215Z,16.47
2018-12-27T02:36:23.753Z,16.70
2018-12-27T02:39:14.402Z,15.80
2018-12-27T02:41:57.490Z,17.40
2018-12-27T02:44:48.215Z,17.10
2018-12-27T02:47:31.364Z,17.13
2018-12-27T02:50:21.990Z,18.43
2018-12-27T02:53:05.271Z,17.80
2018-12-27T02:55:55.987Z,17.27
2018-12-27T02:58:39.441Z,15.90
2018-12-27T03:01:30.121Z,15.83
2018-12-27T03:04:13.601Z,16.03
2018-12-27T03:07:23.333Z,15.30
2018-12-27T03:10:12.438Z,16.27
2018-12-27T03:13:03.082Z,15.73
2018-12-27T03:15:46.622Z,14.53
2018-12-27T03:18:37.368Z,14.30
2018-12-27T03:21:20.491Z,15.57
2018-12-27T03:24:21.194Z,15.70
2018-12-27T03:27:11.810Z,13.87
2018-12-27T03:29:55.158Z,14.00
2018-12-27T03:32:45.888Z,13.73
2018-12-27T03:35:29.429Z,14.43
2018-12-27T03:38:20.062Z,13.80
2018-12-27T03:41:03.569Z,14.47
2018-12-27T03:47:17.036Z,13.10
2018-12-27T03:50:00.526Z,13.70
2018-12-27T03:52:42.146Z,14.17
2018-12-27T03:55:32.855Z,15.80
2018-12-27T03:58:16.160Z,12.83
2018-12-27T04:04:20.087Z,12.90
2018-12-27T04:07:03.466Z,13.60
2018-12-27T04:09:46.654Z,14.07
2018-12-27T04:12:56.340Z,12.37
2018-12-27T04:15:39.869Z,12.40
2018-12-27T04:21:55.309Z,12.67
2018-12-27T04:24:38.676Z,12.33
2018-12-27T04:27:22.294Z,13.70
2018-12-27T04:33:35.538Z,11.73
2018-12-27T04:36:18.558Z,11.97
2018-12-27T04:39:02.148Z,12.40
2018-12-27T04:45:14.357Z,12.73
2018-12-27T04:47:57.618Z,11.40
2018-12-27T04:50:41.141Z,13.30
2018-12-27T04:59:55.626Z,13.30
2018-12-27T05:02:38.677Z,13.70
2018-12-27T05:05:21.500Z,12.10
2018-12-27T05:08:04.831Z,12.90
2018-12-27T05:10:48.353Z,11.07
2018-12-27T05:20:03.021Z,12.10
2018-12-27T05:22:45.806Z,12.53
2018-12-27T05:29:03.207Z,12.43
2018-12-27T05:31:46.066Z,12.30
2018-12-27T05:34:28.874Z,10.77
2018-12-27T05:40:39.506Z,12.20
2018-12-27T05:43:22.751Z,12.40
2018-12-27T05:46:06.155Z,11.63
2018-12-27T05:48:56.673Z,12.50
2018-12-27T05:51:39.508Z,12.43
2018-12-27T05:54:29.977Z,13.30
2018-12-27T05:57:12.816Z,13.53
2018-12-27T06:03:25.882Z,12.50
2018-12-27T06:06:09.180Z,12.87
2018-12-27T06:08:52.389Z,13.53
2018-12-27T06:18:04.473Z,11.80
2018-12-27T06:20:47.940Z,11.60
2018-12-27T06:26:39.982Z,12.27
2018-12-27T06:29:23.454Z,12.10
2018-12-27T06:35:42.469Z,10.23
2018-12-27T06:38:25.626Z,11.57
2018-12-27T06:41:09.053Z,10.70
2018-12-27T06:47:19.809Z,10.67
2018-12-27T06:50:03.088Z,10.43
2018-12-27T06:52:45.925Z,11.50
2018-12-27T06:59:03.019Z,11.87
2018-12-27T07:01:46.223Z,11.93
2018-12-27T07:04:29.790Z,12.90
2018-12-27T07:10:40.493Z,15.60
2018-12-27T07:13:25.453Z,13.77
2018-12-27T07:16:08.337Z,13.17
2018-12-27T07:18:58.850Z,12.20
2018-12-27T07:21:42.342Z,11.83
2018-12-27T07:24:32.877Z,12.73
2018-12-27T07:27:16.105Z,12.40
2018-12-27T07:36:41.161Z,12.50
2018-12-27T07:39:31.743Z,12.00
2018-12-27T07:42:14.850Z,13.43
2018-12-27T07:48:31.760Z,12.27
2018-12-27T07:51:15.052Z,12.80
2018-12-27T07:53:58.424Z,11.30
2018-12-27T07:56:48.874Z,13.87
2018-12-27T07:59:32.221Z,13.10
2018-12-27T08:05:37.995Z,12.10
2018-12-27T08:08:21.307Z,12.47
2018-12-27T08:11:04.062Z,12.47
2018-12-27T08:20:16.233Z,11.50
2018-12-27T08:22:59.672Z,12.43
2018-12-27T08:28:51.774Z,9.03
2018-12-27T08:31:34.894Z,9.50
2018-12-27T08:34:17.696Z,9.83
2018-12-27T08:40:30.678Z,9.13
2018-12-27T08:43:13.923Z,8.50
2018-12-27T08:45:57.468Z,10.07
2018-12-27T08:52:07.853Z,9.93
2018-12-27T08:54:51.298Z,10.10
2018-12-27T08:57:34.569Z,9.80
2018-12-27T09:00:25.110Z,8.67
2018-12-27T09:03:08.759Z,9.63
2018-12-27T09:05:52.337Z,10.63
2018-12-27T09:09:01.772Z,10.50
2018-12-27T09:11:46.334Z,9.73
2018-12-27T09:14:55.793Z,9.80
2018-12-27T09:17:40.883Z,10.40
2018-12-27T09:20:50.347Z,11.00
2018-12-27T09:23:33.632Z,9.53
2018-12-27T09:26:24.169Z,9.50
2018-12-27T09:29:07.006Z,9.70
2018-12-27T09:32:16.427Z,10.50
2018-12-27T09:35:00.082Z,10.47
2018-12-27T09:37:43.752Z,9.73
2018-12-27T09:40:34.301Z,11.40
2018-12-27T09:43:17.525Z,10.83
2018-12-27T09:46:08.231Z,10.40
2018-12-27T09:48:49.781Z,9.10
2018-12-27T09:58:02.542Z,9.90
2018-12-27T10:00:45.321Z,10.57
2018-12-27T10:06:48.441Z,11.93
2018-12-27T10:09:31.188Z,10.80
2018-12-27T10:12:14.734Z,10.50
2018-12-27T10:15:05.806Z,10.77
2018-12-27T10:17:48.564Z,10.00
2018-12-27T10:20:39.007Z,10.90
2018-12-27T10:23:22.182Z,10.27
2018-12-27T10:26:12.821Z,10.83
2018-12-27T10:28:54.340Z,11.90
2018-12-27T10:31:44.886Z,10.97
2018-12-27T10:34:28.259Z,12.97
2018-12-27T10:37:19.074Z,13.10
2018-12-27T10:40:02.379Z,12.97
2018-12-27T10:42:52.972Z,12.23
2018-12-27T10:45:36.122Z,13.03
2018-12-27T10:48:26.575Z,14.03
2018-12-27T10:51:10.157Z,12.40
2018-12-27T10:54:00.682Z,11.83
2018-12-27T10:56:43.915Z,10.57
2018-12-27T10:59:34.450Z,11.30
2018-12-27T11:02:17.554Z,9.90
2018-12-27T11:05:08.103Z,12.90
2018-12-27T11:07:51.602Z,10.30
2018-12-27T11:10:43.130Z,12.00
2018-12-27T11:13:25.949Z,9.40
2018-12-27T11:16:16.556Z,9.30
2018-12-27T11:18:59.815Z,10.37
2018-12-27T11:25:17.170Z,9.63
2018-12-27T11:28:00.508Z,10.20
2018-12-27T11:30:44.029Z,8.77
2018-12-27T11:33:34.575Z,9.00
2018-12-27T11:36:17.763Z,9.67
2018-12-27T11:39:08.306Z,9.53
2018-12-27T11:41:51.069Z,8.87
2018-12-27T11:44:41.589Z,9.70
2018-12-27T11:47:25.077Z,9.47
2018-12-27T11:50:15.630Z,10.40
2018-12-27T11:52:58.609Z,8.23
2018-12-27T11:55:49.110Z,8.80
2018-12-27T11:58:31.894Z,9.40
2018-12-27T12:01:22.395Z,8.87
2018-12-27T12:04:06.090Z,9.80
2018-12-27T12:06:56.634Z,10.20
2018-12-27T12:09:47.201Z,9.30
2018-12-27T12:12:29.945Z,10.70
2018-12-27T12:15:12.726Z,9.10
2018-12-27T12:18:03.237Z,9.97
2018-12-27T12:20:44.760Z,9.27
2018-12-27T12:23:35.287Z,9.63
2018-12-27T12:26:16.783Z,11.10
2018-12-27T12:29:07.334Z,9.67
2018-12-27T12:31:50.936Z,9.87
2018-12-27T12:34:41.510Z,11.20
2018-12-27T12:37:24.276Z,11.40
2018-12-27T12:40:14.823Z,12.40
2018-12-27T12:42:57.658Z,12.70
2018-12-27T12:45:48.152Z,11.83
2018-12-27T12:48:31.592Z,13.30
2018-12-27T12:54:25.138Z,13.90
2018-12-27T12:57:15.685Z,14.40
2018-12-27T12:59:58.508Z,15.93
2018-12-27T13:02:49.124Z,16.00
2018-12-27T13:05:32.363Z,15.70
2018-12-27T13:08:15.997Z,16.20
2018-12-27T13:11:06.587Z,16.93
2018-12-27T13:13:49.716Z,16.50
2018-12-27T13:16:33.269Z,17.03
2018-12-27T13:19:23.852Z,19.87
2018-12-27T13:22:09.077Z,18.53
2018-12-27T13:24:59.594Z,18.07
2018-12-27T13:27:43.130Z,19.30
2018-12-27T13:30:33.674Z,18.93
2018-12-27T13:33:17.090Z,18.67
2018-12-27T13:39:09.767Z,17.70
2018-12-27T13:42:00.309Z,16.53
2018-12-27T13:44:43.701Z,18.77
2018-12-27T13:47:34.207Z,17.30
2018-12-27T13:50:17.539Z,17.77
2018-12-27T13:53:08.034Z,17.50
2018-12-27T13:55:51.351Z,17.80
2018-12-27T13:58:41.876Z,17.43
2018-12-27T14:01:25.198Z,17.07
2018-12-27T14:04:15.725Z,17.57
2018-12-27T14:06:59.198Z,18.60
2018-12-27T14:09:41.908Z,18.17
2018-12-27T14:12:32.491Z,15.90
2018-12-27T14:15:15.614Z,17.03
2018-12-27T14:17:58.388Z,19.00
2018-12-27T14:20:48.926Z,17.20
2018-12-27T14:23:32.346Z,17.30
2018-12-27T14:26:22.852Z,17.63
2018-12-27T14:29:06.427Z,17.30
2018-12-27T14:31:56.971Z,17.77
2018-12-27T14:34:40.167Z,18.37
2018-12-27T14:40:53.510Z,19.20
2018-12-27T14:43:36.980Z,18.33
2018-12-27T14:46:28.266Z,18.17
2018-12-27T14:49:11.851Z,21.10
2018-12-27T14:52:02.359Z,21.50
2018-12-27T14:54:45.306Z,21.77
2018-12-27T15:00:44.168Z,22.53
2018-12-27T15:03:34.789Z,22.37
2018-12-27T15:06:18.272Z,23.73
2018-12-27T15:09:09.181Z,23.80
2018-12-27T15:11:52.849Z,24.00
2018-12-27T15:18:03.677Z,23.70
2018-12-27T15:20:52.411Z,21.83
2018-12-27T15:26:51.190Z,22.27
2018-12-27T15:29:41.728Z,21.93
2018-12-27T15:32:24.409Z,24.53
2018-12-27T15:35:14.995Z,23.10
2018-12-27T15:37:58.461Z,23.87
2018-12-27T15:40:49.068Z,24.80
2018-12-27T15:43:32.480Z,24.40
2018-12-27T15:46:23.039Z,26.80
2018-12-27T15:49:06.516Z,26.30
2018-12-27T15:51:59.992Z,25.67
2018-12-27T15:54:43.167Z,24.40
2018-12-27T15:57:33.714Z,25.30
2018-12-27T16:00:17.322Z,24.40
2018-12-27T16:03:07.900Z,25.40
2018-12-27T16:05:51.420Z,23.37
2018-12-27T16:08:41.988Z,22.93
2018-12-27T16:11:25.230Z,25.97
2018-12-27T16:14:15.813Z,26.20
2018-12-27T16:16:58.924Z,24.77
2018-12-27T16:34:59.764Z,28.17
2018-12-27T16:37:43.333Z,32.40
2018-12-27T16:40:33.891Z,29.23
2018-12-27T16:43:16.733Z,29.43
2018-12-27T16:46:07.256Z,30.87
2018-12-27T16:49:09.306Z,35.83
2018-12-27T17:01:04.692Z,30.80
2018-12-27T17:03:47.463Z,31.17
2018-12-27T17:10:00.559Z,31.53
2018-12-27T17:12:42.264Z,31.60
2018-12-27T17:15:32.830Z,31.53
2018-12-27T17:18:15.735Z,34.23
2018-12-27T17:21:06.311Z,35.43
2018-12-27T17:23:49.585Z,34.03
2018-12-27T17:26:40.165Z,34.67
2018-12-27T17:29:23.202Z,36.53
2018-12-27T17:35:15.846Z,35.60
2018-12-27T17:37:59.011Z,35.23
2018-12-27T17:43:51.894Z,33.57
2018-12-27T17:46:35.851Z,34.50
2018-12-27T17:52:53.426Z,40.73
2018-12-27T17:55:36.270Z,40.90
2018-12-27T18:01:28.771Z,37.83
2018-12-27T18:04:11.917Z,38.93
2018-12-27T18:10:04.412Z,40.30
2018-12-27T18:12:47.147Z,39.43
2018-12-27T18:19:06.262Z,38.10
2018-12-27T18:21:49.674Z,35.97
2018-12-27T18:24:32.617Z,34.70
2018-12-27T18:30:45.714Z,36.57
2018-12-27T18:33:30.424Z,40.93
2018-12-27T18:36:13.352Z,38.47
2018-12-27T18:42:04.728Z,38.00
2018-12-27T18:44:47.878Z,37.43
2018-12-27T18:47:38.357Z,38.57
2018-12-27T18:50:21.431Z,38.07
2018-12-27T18:53:11.991Z,39.77
2018-12-27T18:55:55.509Z,35.77
2018-12-27T18:58:46.083Z,34.70
2018-12-27T19:01:29.015Z,38.10
2018-12-27T19:04:19.581Z,38.70
2018-12-27T19:07:02.954Z,38.20
2018-12-27T19:09:53.607Z,39.27
2018-12-27T19:12:55.569Z,40.20
2018-12-27T19:16:05.236Z,41.50
2018-12-27T19:18:50.208Z,41.63
2018-12-27T19:22:01.999Z,42.47
2018-12-27T19:24:45.391Z,41.90
2018-12-27T19:27:36.029Z,42.23
2018-12-27T19:30:19.360Z,41.87
2018-12-27T19:33:09.953Z,42.13
2018-12-27T19:35:59.125Z,41.13
2018-12-27T19:38:49.670Z,40.10
2018-12-27T19:41:33.016Z,40.70
2018-12-27T19:44:24.568Z,42.60
2018-12-27T19:47:07.426Z,39.07
2018-12-27T19:49:57.985Z,34.40
2018-12-27T19:52:40.932Z,34.43
2018-12-27T19:58:33.007Z,32.23
2018-12-27T20:01:16.481Z,28.10
2018-12-27T20:04:06.954Z,32.33
2018-12-27T20:06:49.906Z,31.47
2018-12-27T20:09:32.836Z,30.90
2018-12-27T20:12:16.014Z,31.33
2018-12-27T20:15:25.655Z,35.40
2018-12-27T20:18:08.397Z,36.60
2018-12-27T20:20:58.958Z,34.70
2018-12-27T20:23:42.271Z,37.50
2018-12-27T20:26:32.851Z,36.77
2018-12-27T20:29:16.266Z,37.20
2018-12-27T20:32:06.841Z,36.50
2018-12-27T20:34:50.318Z,37.50
2018-12-27T20:37:40.932Z,38.43
2018-12-27T20:40:24.524Z,38.93
2018-12-27T20:43:15.099Z,36.30
2018-12-27T20:45:57.870Z,38.77
2018-12-27T20:48:48.477Z,34.03
2018-12-27T20:51:31.201Z,33.93
2018-12-27T20:57:43.865Z,36.90
2018-12-27T21:00:29.656Z,38.67
2018-12-27T21:06:46.450Z,36.90
2018-12-27T21:09:29.364Z,37.10
2018-12-27T21:12:12.157Z,40.00
2018-12-27T21:14:53.742Z,37.73
2018-12-27T21:18:03.175Z,37.00
2018-12-27T21:20:46.147Z,40.90
2018-12-27T21:23:55.588Z,34.20
2018-12-27T21:26:38.544Z,36.50
2018-12-27T21:29:48.055Z,37.47
2018-12-27T21:32:31.236Z,33.47
2018-12-27T21:35:40.672Z,34.30
2018-12-27T21:38:23.576Z,34.27
2018-12-27T21:47:17.736Z,35.70
2018-12-27T21:50:02.617Z,36.40
2018-12-27T21:58:56.979Z,34.60
2018-12-27T22:01:40.514Z,32.70
2018-12-27T22:04:31.114Z,33.00
2018-12-27T22:07:14.321Z,33.43
2018-12-27T22:13:19.373Z,30.47
2018-12-27T22:16:00.908Z,32.20
2018-12-27T22:18:44.113Z,30.63
2018-12-27T22:21:34.650Z,27.83
2018-12-27T22:24:17.973Z,25.50
2018-12-27T22:27:08.504Z,25.83
2018-12-27T22:29:51.965Z,24.57
2018-12-27T22:32:42.492Z,24.93
2018-12-27T22:35:26.047Z,24.30
2018-12-27T22:38:16.602Z,23.93
2018-12-27T22:40:59.918Z,23.60
2018-12-27T22:50:12.567Z,20.40
2018-12-27T22:52:55.994Z,19.90
2018-12-27T22:56:05.673Z,20.40
2018-12-27T22:58:49.067Z,19.93
2018-12-27T23:01:39.633Z,20.30
2018-12-27T23:04:21.217Z,20.07
2018-12-27T23:07:11.657Z,18.70
2018-12-27T23:09:55.067Z,18.63
2018-12-27T23:15:58.686Z,16.40
2018-12-27T23:18:41.637Z,16.13
2018-12-27T23:21:23.175Z,18.27
2018-12-27T23:24:13.716Z,17.60
2018-12-27T23:26:57.113Z,17.33
2018-12-27T23:29:47.713Z,17.40
2018-12-27T23:32:30.526Z,16.83
2018-12-27T23:35:21.062Z,16.43
2018-12-27T23:38:04.401Z,18.43
2018-12-27T23:40:54.915Z,18.03
2018-12-27T23:43:38.323Z,17.43
2018-12-27T23:46:28.904Z,17.00
2018-12-27T23:49:12.417Z,17.23
2018-12-27T23:52:03.006Z,17.13
2018-12-27T23:54:46.420Z,16.30
